Time;durP1;ratioP1;P1;durP2;ratioP2;P2;SDS_P1;SDS_P2;PMS_P1;PMS_P2;Temp;Humidity;BMP_temperature;BMP_pressure;BME280_temperature;BME280_humidity;BME280_pressure;Samples;Min_cycle;Max_cycle;Signal;HPM_P1;HPM_P2
2022/08/08 00:00:42;;;;;;;4.00;2.50;;;;;;;;;;5035368;28;20387;-81
2022/08/08 00:03:08;;;;;;;3.63;2.58;;;;;;;;;;5034050;28;20056;-84
2022/08/08 00:05:38;;;;;;;4.10;2.30;;;;;;;;;;5035163;28;20498;-83
2022/08/08 00:08:04;;;;;;;7.45;2.55;;;;;;;;;;5035078;28;20080;-86
2022/08/08 00:10:34;;;;;;;4.90;2.08;;;;;;;;;;5035568;28;20021;-85
2022/08/08 00:13:19;;;;;;;3.97;2.30;;;;;;;;;;5032834;28;20033;-86
2022/08/08 00:15:57;;;;;;;3.38;2.42;;;;;;;;;;5035451;28;20014;-84
2022/08/08 00:18:36;;;;;;;5.30;2.30;;;;;;;;;;5032488;28;20127;-86
2022/08/08 00:21:03;;;;;;;2.58;2.13;;;;;;;;;;5034772;28;20033;-84
2022/08/08 00:23:38;;;;;;;5.60;2.25;;;;;;;;;;5033606;28;20025;-86
2022/08/08 00:26:06;;;;;;;4.07;2.33;;;;;;;;;;5035056;28;20022;-82
2022/08/08 00:28:38;;;;;;;3.95;2.42;;;;;;;;;;5034883;28;20025;-85
2022/08/08 00:31:12;;;;;;;4.13;2.40;;;;;;;;;;5035106;28;20031;-83
2022/08/08 00:33:43;;;;;;;3.67;2.20;;;;;;;;;;5027321;28;20271;-84
2022/08/08 00:36:23;;;;;;;3.10;2.22;;;;;;;;;;5034810;28;20384;-86
2022/08/08 00:38:51;;;;;;;2.47;2.10;;;;;;;;;;5035093;28;20053;-83
2022/08/08 00:41:55;;;;;;;2.38;2.17;;;;;;;;;;5034979;28;20045;-86
2022/08/08 00:44:21;;;;;;;2.97;2.20;;;;;;;;;;4954652;28;20034;-82
2022/08/08 00:47:06;;;;;;;2.53;2.20;;;;;;;;;;4964894;28;20030;-85
2022/08/08 00:49:50;;;;;;;3.13;2.10;;;;;;;;;;4956254;28;20041;-83
2022/08/08 00:52:16;;;;;;;2.95;2.00;;;;;;;;;;4959370;28;20027;-81
2022/08/08 00:54:57;;;;;;;3.40;2.22;;;;;;;;;;4962029;28;20043;-85
2022/08/08 00:57:45;;;;;;;3.95;2.50;;;;;;;;;;4949094;28;20050;-82
2022/08/08 01:00:16;;;;;;;4.18;2.33;;;;;;;;;;4915979;29;20088;-86
2022/08/08 01:03:00;;;;;;;4.38;2.33;;;;;;;;;;4915231;29;20040;-83
2022/08/08 01:05:45;;;;;;;6.68;2.53;;;;;;;;;;4915485;29;20131;-85
2022/08/08 01:08:14;;;;;;;4.43;2.05;;;;;;;;;;4915859;29;20059;-85
2022/08/08 01:10:55;;;;;;;4.88;2.30;;;;;;;;;;4916047;29;20156;-83
2022/08/08 01:13:21;;;;;;;4.20;2.20;;;;;;;;;;4916225;29;20482;-86
2022/08/08 01:15:56;;;;;;;7.03;2.35;;;;;;;;;;4943494;28;20035;-79
2022/08/08 01:18:33;;;;;;;4.20;2.05;;;;;;;;;;4953803;29;20039;-85
2022/08/08 01:21:15;;;;;;;3.03;2.08;;;;;;;;;;4953315;29;20051;-86
2022/08/08 01:23:56;;;;;;;4.03;2.03;;;;;;;;;;4962882;28;20609;-86
2022/08/08 01:26:25;;;;;;;5.20;2.40;;;;;;;;;;4954199;28;20042;-69
2022/08/08 01:28:57;;;;;;;3.80;2.45;;;;;;;;;;4965474;28;20098;-86
2022/08/08 01:31:56;;;;;;;2.85;2.22;;;;;;;;;;4955038;28;20053;-84
2022/08/08 01:34:41;;;;;;;5.57;2.40;;;;;;;;;;4953943;28;20053;-78
2022/08/08 01:37:07;;;;;;;4.75;2.40;;;;;;;;;;4989391;28;20107;-81
2022/08/08 01:39:51;;;;;;;2.10;1.90;;;;;;;;;;5032749;28;20344;-79
2022/08/08 01:42:20;;;;;;;5.68;2.15;;;;;;;;;;5030370;28;20028;-86
2022/08/08 01:44:53;;;;;;;5.45;2.40;;;;;;;;;;5033367;28;20025;-85
2022/08/08 01:47:19;;;;;;;2.10;1.83;;;;;;;;;;5032311;28;20057;-85
2022/08/08 01:49:50;;;;;;;6.72;2.05;;;;;;;;;;5031811;28;20071;-85
2022/08/08 01:52:16;;;;;;;3.47;2.22;;;;;;;;;;5033292;28;20104;-85
2022/08/08 01:54:54;;;;;;;3.50;2.15;;;;;;;;;;5030639;28;20026;-83
2022/08/08 01:57:20;;;;;;;3.40;1.98;;;;;;;;;;5032821;28;20038;-86
2022/08/08 02:00:05;;;;;;;3.58;2.15;;;;;;;;;;5031313;28;20138;-85
2022/08/08 02:02:37;;;;;;;3.10;2.30;;;;;;;;;;5032159;28;20025;-83
2022/08/08 02:05:12;;;;;;;3.65;2.30;;;;;;;;;;5023395;28;20483;-81
2022/08/08 02:07:51;;;;;;;2.75;2.05;;;;;;;;;;5032671;28;20104;-80
2022/08/08 02:10:35;;;;;;;2.63;1.92;;;;;;;;;;5031857;28;20029;-74
2022/08/08 02:13:05;;;;;;;3.60;2.00;;;;;;;;;;5032812;28;20101;-83
2022/08/08 02:15:37;;;;;;;3.50;2.10;;;;;;;;;;5033098;28;20109;-84
2022/08/08 02:18:09;;;;;;;3.50;2.17;;;;;;;;;;5032095;28;20038;-86
2022/08/08 02:20:41;;;;;;;3.25;2.17;;;;;;;;;;5031722;28;20029;-85
2022/08/08 02:23:23;;;;;;;5.90;2.20;;;;;;;;;;5032963;28;20041;-86
2022/08/08 02:26:07;;;;;;;8.07;2.37;;;;;;;;;;5030109;28;20022;-82
2022/08/08 02:28:33;;;;;;;3.90;2.10;;;;;;;;;;5032639;28;20032;-76
2022/08/08 02:31:11;;;;;;;3.80;2.17;;;;;;;;;;5030358;28;20131;-74
2022/08/08 02:33:48;;;;;;;4.05;2.30;;;;;;;;;;5031841;28;20510;-84
2022/08/08 02:36:14;;;;;;;4.18;2.40;;;;;;;;;;5032538;28;20867;-83
2022/08/08 02:38:43;;;;;;;2.53;2.20;;;;;;;;;;5032516;28;20030;-85
2022/08/08 02:41:28;;;;;;;3.17;2.13;;;;;;;;;;5030928;28;20018;-78
2022/08/08 02:43:54;;;;;;;4.40;2.20;;;;;;;;;;5030824;28;20035;-85
2022/08/08 02:46:32;;;;;;;4.05;2.25;;;;;;;;;;5031846;28;20386;-85
2022/08/08 02:49:12;;;;;;;6.20;2.17;;;;;;;;;;5031246;28;20483;-86
2022/08/08 02:51:52;;;;;;;2.90;2.30;;;;;;;;;;5032332;28;20037;-79
2022/08/08 02:54:24;;;;;;;5.75;2.50;;;;;;;;;;5032181;28;20160;-71
2022/08/08 02:56:59;;;;;;;3.80;2.30;;;;;;;;;;5022659;28;20121;-83
2022/08/08 02:59:31;;;;;;;4.35;2.53;;;;;;;;;;5032437;28;20029;-85
2022/08/08 03:02:13;;;;;;;5.05;2.63;;;;;;;;;;5031371;28;20010;-82
2022/08/08 03:04:45;;;;;;;4.18;2.28;;;;;;;;;;5032099;28;20064;-85
2022/08/08 03:07:29;;;;;;;5.05;2.22;;;;;;;;;;5032697;28;20053;-85
2022/08/08 03:10:05;;;;;;;5.55;2.45;;;;;;;;;;5031632;28;20451;-86
2022/08/08 03:12:43;;;;;;;4.47;2.13;;;;;;;;;;5030260;28;20053;-74
2022/08/08 03:15:20;;;;;;;7.45;2.20;;;;;;;;;;5031143;28;20064;-83
2022/08/08 03:17:55;;;;;;;5.55;2.33;;;;;;;;;;5030825;28;20034;-78
2022/08/08 03:20:21;;;;;;;4.32;2.15;;;;;;;;;;5020228;28;20072;-84
2022/08/08 03:22:48;;;;;;;5.13;2.20;;;;;;;;;;5031943;28;20057;-82
2022/08/08 03:25:15;;;;;;;6.45;2.33;;;;;;;;;;5026663;28;20510;-80
2022/08/08 03:27:59;;;;;;;3.13;1.95;;;;;;;;;;5032646;28;20471;-83
2022/08/08 03:30:25;;;;;;;3.40;1.90;;;;;;;;;;5036234;28;20047;-82
2022/08/08 03:35:41;;;;;;;5.18;1.92;;;;;;;;;;5030919;28;20048;-68
2022/08/08 03:38:07;;;;;;;5.88;2.20;;;;;;;;;;5026052;28;20495;-68
2022/08/08 03:40:34;;;;;;;5.00;1.83;;;;;;;;;;5034908;28;20471;-70
2022/08/08 03:43:00;;;;;;;4.18;2.28;;;;;;;;;;5036002;28;20084;-76
2022/08/08 03:45:27;;;;;;;4.05;1.90;;;;;;;;;;5033340;28;20482;-70
2022/08/08 03:47:56;;;;;;;4.95;2.05;;;;;;;;;;5035880;28;20044;-83
2022/08/08 03:50:22;;;;;;;3.20;1.98;;;;;;;;;;5036405;28;20067;-83
2022/08/08 03:52:48;;;;;;;3.53;1.80;;;;;;;;;;5037106;28;20386;-81
2022/08/08 03:55:16;;;;;;;3.72;1.70;;;;;;;;;;5033361;28;20025;-83
2022/08/08 03:57:49;;;;;;;2.13;1.88;;;;;;;;;;5042514;28;20495;-81
2022/08/08 04:00:15;;;;;;;;;;;;;;;;;;5042899;28;20632;-82
2022/08/08 04:02:42;;;;;;;2.70;1.90;;;;;;;;;;5043009;28;19930;-79
2022/08/08 04:05:08;;;;;;;4.15;2.08;;;;;;;;;;5044321;28;20029;-78
2022/08/08 04:07:35;;;;;;;3.90;2.13;;;;;;;;;;5039689;28;20465;-81
2022/08/08 04:10:01;;;;;;;4.70;2.00;;;;;;;;;;5035041;28;20079;-83
2022/08/08 04:12:27;;;;;;;4.15;2.00;;;;;;;;;;5035938;28;20079;-84
2022/08/08 04:14:55;;;;;;;2.83;1.88;;;;;;;;;;5036210;28;20065;-82
2022/08/08 04:17:21;;;;;;;4.38;1.90;;;;;;;;;;5039234;28;20032;-85
2022/08/08 04:19:47;;;;;;;6.90;2.22;;;;;;;;;;5033860;28;20079;-74
2022/08/08 04:22:13;;;;;;;7.57;2.50;;;;;;;;;;5033635;28;20045;-83
2022/08/08 04:24:39;;;;;;;5.53;2.03;;;;;;;;;;5035001;28;20487;-83
2022/08/08 04:27:05;;;;;;;3.78;2.00;;;;;;;;;;5034611;28;20048;-83
2022/08/08 04:29:32;;;;;;;5.22;1.95;;;;;;;;;;5034456;28;20362;-68
2022/08/08 04:31:58;;;;;;;3.88;1.90;;;;;;;;;;5034959;28;20083;-80
2022/08/08 04:34:24;;;;;;;3.40;1.90;;;;;;;;;;5034326;28;20080;-83
2022/08/08 04:36:50;;;;;;;2.72;1.83;;;;;;;;;;5035159;28;20124;-81
2022/08/08 04:39:16;;;;;;;11.05;2.40;;;;;;;;;;5033418;28;20025;-78
2022/08/08 04:41:42;;;;;;;5.35;2.13;;;;;;;;;;5034329;28;20017;-83
2022/08/08 04:44:08;;;;;;;4.53;1.90;;;;;;;;;;5034444;28;20104;-82
2022/08/08 04:46:34;;;;;;;4.38;1.88;;;;;;;;;;5034501;28;20110;-82
2022/08/08 04:49:00;;;;;;;2.90;1.95;;;;;;;;;;5034307;28;20474;-85
2022/08/08 04:51:26;;;;;;;4.20;2.00;;;;;;;;;;5033757;28;20026;-85
2022/08/08 04:53:52;;;;;;;8.88;2.70;;;;;;;;;;5031229;28;20160;-73
2022/08/08 04:56:18;;;;;;;4.15;2.20;;;;;;;;;;5024496;28;20021;-74
2022/08/08 04:58:44;;;;;;;6.72;2.00;;;;;;;;;;5032840;28;20045;-81
2022/08/08 05:01:11;;;;;;;5.97;2.40;;;;;;;;;;5037598;28;20040;-71
2022/08/08 05:03:37;;;;;;;4.15;2.20;;;;;;;;;;5032368;28;20374;-74
2022/08/08 05:06:03;;;;;;;10.80;2.65;;;;;;;;;;5033322;28;20060;-76
2022/08/08 05:08:29;;;;;;;3.80;2.20;;;;;;;;;;5032351;28;20056;-80
2022/08/08 05:10:55;;;;;;;4.32;2.10;;;;;;;;;;5030663;28;20021;-75
2022/08/08 05:13:21;;;;;;;3.85;2.25;;;;;;;;;;5014347;28;20042;-74
2022/08/08 05:15:47;;;;;;;8.02;3.30;;;;;;;;;;5026346;28;20028;-69
2022/08/08 05:18:13;;;;;;;7.30;3.15;;;;;;;;;;5033777;28;20087;-73
2022/08/08 05:20:39;;;;;;;4.63;2.88;;;;;;;;;;5034123;28;20101;-79
2022/08/08 05:23:05;;;;;;;7.53;3.53;;;;;;;;;;5033095;28;20034;-71
2022/08/08 05:25:31;;;;;;;10.95;2.90;;;;;;;;;;5033882;28;20475;-77
2022/08/08 05:27:58;;;;;;;4.18;2.70;;;;;;;;;;5033455;28;20017;-69
2022/08/08 05:30:24;;;;;;;13.80;3.17;;;;;;;;;;5034023;28;20071;-73
2022/08/08 05:32:50;;;;;;;5.90;3.20;;;;;;;;;;5031708;28;20026;-66
2022/08/08 05:35:17;;;;;;;7.78;2.67;;;;;;;;;;5032921;28;20049;-73
2022/08/08 05:37:48;;;;;;;8.75;2.85;;;;;;;;;;5033415;28;20056;-78
2022/08/08 05:40:14;;;;;;;4.53;2.33;;;;;;;;;;5033414;28;20052;-69
2022/08/08 05:42:44;;;;;;;4.68;2.42;;;;;;;;;;5032625;28;20029;-68
2022/08/08 05:45:14;;;;;;;12.80;2.90;;;;;;;;;;5030921;28;20026;-78
2022/08/08 05:47:40;;;;;;;3.90;2.50;;;;;;;;;;5031507;28;20025;-71
2022/08/08 05:50:07;;;;;;;4.53;2.63;;;;;;;;;;5033119;28;20021;-74
2022/08/08 05:52:37;;;;;;;4.00;2.30;;;;;;;;;;5032899;28;20037;-71
2022/08/08 05:55:08;;;;;;;3.05;2.40;;;;;;;;;;5027034;28;20424;-69
2022/08/08 05:57:35;;;;;;;5.35;2.65;;;;;;;;;;5029579;28;20033;-70
2022/08/08 06:00:04;;;;;;;3.47;2.30;;;;;;;;;;5032175;28;20075;-71
2022/08/08 06:05:17;;;;;;;6.18;2.85;;;;;;;;;;5033081;28;20033;-67
2022/08/08 06:07:45;;;;;;;7.80;2.80;;;;;;;;;;5029657;28;20033;-71
2022/08/08 06:10:11;;;;;;;3.97;2.67;;;;;;;;;;5029776;28;20083;-76
2022/08/08 06:12:38;;;;;;;3.42;2.58;;;;;;;;;;5030609;28;20101;-74
2022/08/08 06:15:05;;;;;;;4.40;2.65;;;;;;;;;;5030844;28;20101;-70
2022/08/08 06:17:32;;;;;;;6.22;2.80;;;;;;;;;;5028679;28;20048;-76
2022/08/08 06:19:59;;;;;;;8.90;3.00;;;;;;;;;;5030874;28;20036;-76
2022/08/08 06:22:25;;;;;;;24.88;4.07;;;;;;;;;;5030692;28;20025;-67
2022/08/08 06:24:51;;;;;;;7.50;2.90;;;;;;;;;;5028559;28;20021;-70
2022/08/08 06:27:23;;;;;;;5.63;2.72;;;;;;;;;;5032494;28;20117;-70
2022/08/08 06:30:04;;;;;;;12.77;3.08;;;;;;;;;;5032656;28;20096;-70
2022/08/08 06:32:31;;;;;;;7.65;2.60;;;;;;;;;;5032400;28;20053;-71
2022/08/08 06:35:00;;;;;;;3.45;2.60;;;;;;;;;;5030882;28;20491;-75
2022/08/08 06:37:32;;;;;;;11.77;3.58;;;;;;;;;;5028521;28;20056;-70
2022/08/08 06:40:02;;;;;;;4.75;2.80;;;;;;;;;;5031964;28;20022;-71
2022/08/08 06:42:30;;;;;;;9.73;3.55;;;;;;;;;;5031685;28;20391;-71
2022/08/08 06:44:56;;;;;;;4.25;2.78;;;;;;;;;;5031963;28;20474;-71
2022/08/08 06:47:22;;;;;;;6.28;3.33;;;;;;;;;;5032088;28;20021;-72
2022/08/08 06:49:48;;;;;;;11.73;3.58;;;;;;;;;;5027456;28;20022;-72
2022/08/08 06:52:15;;;;;;;5.47;3.00;;;;;;;;;;5032063;28;20071;-72
2022/08/08 06:54:41;;;;;;;11.05;3.10;;;;;;;;;;5032334;28;20052;-72
2022/08/08 06:57:09;;;;;;;6.47;2.92;;;;;;;;;;5032279;28;20108;-72
2022/08/08 06:59:36;;;;;;;8.18;3.28;;;;;;;;;;5030005;28;20368;-71
2022/08/08 08:31:19;;;;;;;11.23;3.40;;;;;;;;;;5130052;27;20419;-78
2022/08/08 08:33:45;;;;;;;10.30;3.60;;;;;;;;;;5102220;28;20028;-73
2022/08/08 08:36:11;;;;;;;10.65;3.47;;;;;;;;;;5111675;28;20032;-74
2022/08/08 08:38:37;;;;;;;5.13;2.70;;;;;;;;;;5108876;28;20024;-76
2022/08/08 08:41:05;;;;;;;8.65;2.85;;;;;;;;;;5110091;28;20035;-75
2022/08/08 08:43:32;;;;;;;9.20;3.42;;;;;;;;;;5095816;28;20028;-71
2022/08/08 08:45:59;;;;;;;17.95;5.80;;;;;;;;;;5098524;28;20111;-74
2022/08/08 08:48:25;;;;;;;8.75;3.60;;;;;;;;;;5089458;28;20024;-75
2022/08/08 08:50:52;;;;;;;8.93;3.35;;;;;;;;;;5089235;28;20035;-73
2022/08/08 08:53:19;;;;;;;5.38;3.45;;;;;;;;;;5100568;28;20027;-73
2022/08/08 08:55:45;;;;;;;7.18;3.47;;;;;;;;;;5107528;28;20024;-75
2022/08/08 08:58:24;;;;;;;12.85;3.97;;;;;;;;;;5098237;28;20153;-69
2022/08/08 09:00:51;;;;;;;8.90;3.50;;;;;;;;;;5092643;28;20052;-75
2022/08/08 09:03:19;;;;;;;7.00;3.60;;;;;;;;;;5089372;28;20031;-75
2022/08/08 09:05:45;;;;;;;5.45;3.40;;;;;;;;;;5088921;28;20035;-74
2022/08/08 09:08:12;;;;;;;5.00;3.55;;;;;;;;;;5089306;28;20377;-75
2022/08/08 09:10:38;;;;;;;16.90;4.47;;;;;;;;;;5088933;28;20038;-72
2022/08/08 09:13:05;;;;;;;10.30;4.45;;;;;;;;;;5088899;28;20069;-75
2022/08/08 09:15:32;;;;;;;4.03;3.05;;;;;;;;;;5100658;28;20027;-76
2022/08/08 09:17:58;;;;;;;5.85;3.50;;;;;;;;;;5091297;28;20012;-75
2022/08/08 09:20:26;;;;;;;8.75;3.30;;;;;;;;;;5097581;28;20489;-70
2022/08/08 09:22:55;;;;;;;12.25;3.60;;;;;;;;;;5078458;28;20033;-72
2022/08/08 09:25:28;;;;;;;6.15;3.40;;;;;;;;;;5085258;28;20067;-76
2022/08/08 09:27:54;;;;;;;6.93;3.72;;;;;;;;;;5079214;28;20029;-75
2022/08/08 09:30:21;;;;;;;5.25;3.17;;;;;;;;;;5097797;28;20137;-76
2022/08/08 09:32:50;;;;;;;8.13;3.20;;;;;;;;;;5088237;28;20023;-73
2022/08/08 09:35:19;;;;;;;8.50;3.45;;;;;;;;;;5101826;28;20052;-69
2022/08/08 09:37:55;;;;;;;8.00;3.60;;;;;;;;;;5088588;28;20090;-73
2022/08/08 09:40:25;;;;;;;6.72;3.20;;;;;;;;;;5092085;28;20036;-73
2022/08/08 09:43:08;;;;;;;5.03;3.10;;;;;;;;;;5091697;28;20099;-73
2022/08/08 09:45:53;;;;;;;8.48;3.88;;;;;;;;;;5080034;28;20027;-73
2022/08/08 09:48:19;;;;;;;13.25;3.97;;;;;;;;;;5079777;28;20039;-73
2022/08/08 09:50:46;;;;;;;21.88;4.57;;;;;;;;;;5090009;28;20477;-72
2022/08/08 09:53:18;;;;;;;4.70;3.10;;;;;;;;;;5087166;28;20035;-70
2022/08/08 09:55:45;;;;;;;5.88;3.65;;;;;;;;;;5078675;28;20020;-75
2022/08/08 09:58:14;;;;;;;7.53;3.70;;;;;;;;;;5065194;28;20028;-73
2022/08/08 10:00:42;;;;;;;7.40;3.50;;;;;;;;;;5084551;28;20899;-73
2022/08/08 10:03:13;;;;;;;8.13;3.78;;;;;;;;;;5102553;28;20028;-72
2022/08/08 10:05:40;;;;;;;5.45;3.38;;;;;;;;;;5083074;28;20116;-71
2022/08/08 10:08:07;;;;;;;9.65;3.97;;;;;;;;;;5074800;28;20115;-73
2022/08/08 10:10:35;;;;;;;11.18;3.42;;;;;;;;;;5081499;28;20068;-72
2022/08/08 10:13:02;;;;;;;12.95;4.80;;;;;;;;;;5081160;28;20081;-72
2022/08/08 10:15:35;;;;;;;5.03;3.58;;;;;;;;;;5084276;28;20024;-71
2022/08/08 10:18:01;;;;;;;5.05;3.38;;;;;;;;;;5082641;28;20038;-74
2022/08/08 10:20:28;;;;;;;7.50;3.90;;;;;;;;;;5079135;28;20048;-72
2022/08/08 10:23:04;;;;;;;6.18;3.40;;;;;;;;;;5086464;28;20027;-74
2022/08/08 10:25:30;;;;;;;6.15;3.80;;;;;;;;;;5083628;28;20036;-72
2022/08/08 10:27:57;;;;;;;4.88;3.75;;;;;;;;;;5091660;28;20110;-71
2022/08/08 10:30:24;;;;;;;6.50;3.60;;;;;;;;;;5087083;28;20064;-72
2022/08/08 10:32:52;;;;;;;9.40;3.60;;;;;;;;;;5084525;28;20035;-73
2022/08/08 10:35:25;;;;;;;9.30;3.80;;;;;;;;;;5079929;28;20035;-70
2022/08/08 10:37:56;;;;;;;6.13;3.83;;;;;;;;;;5082061;28;20020;-75
2022/08/08 10:40:22;;;;;;;6.10;3.70;;;;;;;;;;5081362;28;20028;-75
2022/08/08 10:42:50;;;;;;;5.30;3.70;;;;;;;;;;5072659;28;20021;-77
2022/08/08 10:45:16;;;;;;;10.57;3.92;;;;;;;;;;5085417;28;20036;-76
2022/08/08 10:47:43;;;;;;;405.08;238.00;;;;;;;;;;5077871;28;20016;-79
2022/08/08 10:50:09;;;;;;;91.80;64.65;;;;;;;;;;5085698;28;20053;-72
2022/08/08 10:52:37;;;;;;;8.82;4.80;;;;;;;;;;5074328;28;20027;-73
2022/08/08 10:55:24;;;;;;;7.95;4.43;;;;;;;;;;5073893;28;20016;-78
2022/08/08 10:57:50;;;;;;;5.53;3.70;;;;;;;;;;5073728;28;20024;-75
2022/08/08 11:00:20;;;;;;;5.53;4.18;;;;;;;;;;5080884;28;20044;-79
2022/08/08 11:02:47;;;;;;;6.00;3.70;;;;;;;;;;5076429;28;20543;-75
2022/08/08 11:05:13;;;;;;;5.35;3.97;;;;;;;;;;5078591;28;20032;-75
2022/08/08 11:07:41;;;;;;;6.47;3.80;;;;;;;;;;5087722;28;20504;-77
2022/08/08 11:10:08;;;;;;;6.50;4.05;;;;;;;;;;5079867;28;20038;-75
2022/08/08 11:12:35;;;;;;;6.00;4.10;;;;;;;;;;5076180;28;20360;-71
2022/08/08 11:15:01;;;;;;;7.22;4.30;;;;;;;;;;5076316;28;20169;-75
2022/08/08 11:17:29;;;;;;;16.45;4.47;;;;;;;;;;5082134;28;20028;-72
2022/08/08 11:19:55;;;;;;;5.05;3.65;;;;;;;;;;5092407;28;20031;-75
2022/08/08 11:22:23;;;;;;;17.08;4.82;;;;;;;;;;5079327;28;20025;-76
2022/08/08 11:24:50;;;;;;;7.07;4.20;;;;;;;;;;5086773;28;20033;-74
2022/08/08 11:27:16;;;;;;;5.70;3.95;;;;;;;;;;5072777;28;20466;-73
2022/08/08 11:29:43;;;;;;;8.05;4.30;;;;;;;;;;5087969;28;20044;-76
2022/08/08 11:32:13;;;;;;;8.18;4.05;;;;;;;;;;5074660;28;20077;-73
2022/08/08 11:34:39;;;;;;;6.68;4.15;;;;;;;;;;5079527;28;20466;-70
2022/08/08 11:37:06;;;;;;;15.00;4.80;;;;;;;;;;5082608;28;20091;-70
2022/08/08 11:39:32;;;;;;;6.93;4.20;;;;;;;;;;5083957;28;20024;-76
2022/08/08 11:41:59;;;;;;;5.45;4.20;;;;;;;;;;5088982;28;20103;-74
2022/08/08 11:44:25;;;;;;;6.13;4.45;;;;;;;;;;5080334;28;20020;-75
2022/08/08 11:46:56;;;;;;;8.35;4.40;;;;;;;;;;5081066;28;20034;-73
2022/08/08 11:49:23;;;;;;;5.63;4.22;;;;;;;;;;5090415;28;20023;-74
2022/08/08 11:51:50;;;;;;;8.50;4.10;;;;;;;;;;5089449;28;20031;-70
2022/08/08 11:54:16;;;;;;;4.93;4.15;;;;;;;;;;5088304;28;20027;-74
2022/08/08 11:56:42;;;;;;;7.43;4.75;;;;;;;;;;5092576;28;20027;-74
2022/08/08 11:59:09;;;;;;;7.40;4.15;;;;;;;;;;5073109;28;20517;-72
2022/08/08 12:01:36;;;;;;;8.50;4.45;;;;;;;;;;5072208;28;20074;-70
2022/08/08 12:04:02;;;;;;;6.70;4.65;;;;;;;;;;5072418;28;20021;-73
2022/08/08 12:06:28;;;;;;;10.63;4.43;;;;;;;;;;5088000;28;20028;-74
2022/08/08 12:09:05;;;;;;;5.88;4.40;;;;;;;;;;5076713;28;20061;-75
2022/08/08 12:11:37;;;;;;;6.00;4.20;;;;;;;;;;5089346;28;20099;-73
2022/08/08 12:14:04;;;;;;;7.55;4.57;;;;;;;;;;5076065;28;20194;-73
2022/08/08 12:16:30;;;;;;;7.70;4.53;;;;;;;;;;5081102;28;20106;-70
2022/08/08 12:18:56;;;;;;;6.95;4.28;;;;;;;;;;5077678;28;20021;-72
2022/08/08 12:21:26;;;;;;;6.00;4.20;;;;;;;;;;5084821;28;20080;-74
2022/08/08 12:24:05;;;;;;;13.57;4.80;;;;;;;;;;5076172;28;20032;-73
2022/08/08 12:26:37;;;;;;;6.72;4.18;;;;;;;;;;5084639;28;20154;-80
2022/08/08 12:29:20;;;;;;;6.75;4.22;;;;;;;;;;5081940;28;20440;-67
2022/08/08 12:31:47;;;;;;;7.15;4.15;;;;;;;;;;5080367;28;20039;-68
2022/08/08 12:34:13;;;;;;;6.18;4.38;;;;;;;;;;5074575;28;20024;-68
2022/08/08 12:36:40;;;;;;;5.85;4.10;;;;;;;;;;5105655;28;20054;-69
2022/08/08 12:39:07;;;;;;;8.25;4.50;;;;;;;;;;5083966;28;20031;-76
2022/08/08 12:41:35;;;;;;;8.90;4.45;;;;;;;;;;5087888;28;20028;-76
2022/08/08 12:44:05;;;;;;;6.40;4.05;;;;;;;;;;5078465;28;20025;-76
2022/08/08 12:46:31;;;;;;;23.05;5.22;;;;;;;;;;5075796;28;20028;-75
2022/08/08 12:49:01;;;;;;;8.40;4.60;;;;;;;;;;5072577;28;20033;-75
2022/08/08 12:51:38;;;;;;;9.02;4.28;;;;;;;;;;5086204;28;20505;-76
2022/08/08 12:54:06;;;;;;;7.47;4.47;;;;;;;;;;5084412;28;20020;-76
2022/08/08 12:56:33;;;;;;;12.95;4.85;;;;;;;;;;5103716;28;20027;-75
2022/08/08 12:58:59;;;;;;;8.52;4.68;;;;;;;;;;5076633;28;20048;-75
2022/08/08 13:01:33;;;;;;;6.25;4.15;;;;;;;;;;5075859;28;20475;-75
2022/08/08 13:03:59;;;;;;;8.02;4.30;;;;;;;;;;5088044;28;20106;-76
2022/08/08 13:06:26;;;;;;;5.63;4.43;;;;;;;;;;5083950;28;20022;-74
2022/08/08 13:08:52;;;;;;;6.13;5.00;;;;;;;;;;5075921;28;20032;-75
2022/08/08 13:11:21;;;;;;;7.15;4.90;;;;;;;;;;5075435;28;20042;-78
2022/08/08 13:13:52;;;;;;;6.93;4.65;;;;;;;;;;5075723;28;20032;-75
2022/08/08 13:16:19;;;;;;;6.70;4.18;;;;;;;;;;5094916;28;20024;-75
2022/08/08 13:18:48;;;;;;;8.40;5.00;;;;;;;;;;5084744;28;20028;-74
2022/08/08 13:21:14;;;;;;;33.17;6.22;;;;;;;;;;5076936;28;20024;-75
2022/08/08 13:23:44;;;;;;;8.95;4.45;;;;;;;;;;5092236;28;20020;-68
2022/08/08 13:26:10;;;;;;;8.38;4.28;;;;;;;;;;5075290;28;20070;-71
2022/08/08 13:28:36;;;;;;;7.10;4.78;;;;;;;;;;5080972;28;20020;-74
2022/08/08 13:31:02;;;;;;;6.90;4.60;;;;;;;;;;5075595;28;20049;-73
2022/08/08 13:33:29;;;;;;;7.97;4.80;;;;;;;;;;5078331;28;20035;-74
2022/08/08 13:35:56;;;;;;;5.47;4.78;;;;;;;;;;5091529;28;20028;-75
2022/08/08 13:38:22;;;;;;;10.70;4.80;;;;;;;;;;5074950;28;20052;-70
2022/08/08 13:40:48;;;;;;;15.82;5.75;;;;;;;;;;5075179;28;20516;-72
2022/08/08 13:43:15;;;;;;;8.82;4.80;;;;;;;;;;5075021;28;20032;-70
2022/08/08 13:45:41;;;;;;;6.63;4.55;;;;;;;;;;5074999;28;20017;-73
2022/08/08 13:48:14;;;;;;;5.13;4.60;;;;;;;;;;5075150;28;20036;-73
2022/08/08 13:50:50;;;;;;;5.82;4.60;;;;;;;;;;5074449;28;20111;-69
2022/08/08 13:53:30;;;;;;;5.95;4.88;;;;;;;;;;5074890;28;20052;-69
2022/08/08 13:56:00;;;;;;;7.93;4.78;;;;;;;;;;5075870;28;20028;-72
2022/08/08 13:58:26;;;;;;;7.53;5.32;;;;;;;;;;5094460;28;20016;-73
2022/08/08 14:00:52;;;;;;;18.95;5.82;;;;;;;;;;5092110;28;20031;-69
2022/08/08 14:03:26;;;;;;;11.55;4.75;;;;;;;;;;5087286;28;20039;-73
2022/08/08 14:05:52;;;;;;;6.32;4.68;;;;;;;;;;5101315;28;20024;-71
2022/08/08 14:08:18;;;;;;;12.98;4.80;;;;;;;;;;5091052;28;20036;-67
2022/08/08 14:10:44;;;;;;;8.15;5.05;;;;;;;;;;5086919;28;20518;-71
2022/08/08 14:13:15;;;;;;;5.82;4.60;;;;;;;;;;5085231;28;20056;-72
2022/08/08 14:15:41;;;;;;;12.13;5.00;;;;;;;;;;5074810;28;20544;-72
2022/08/08 14:18:08;;;;;;;14.15;5.18;;;;;;;;;;5087662;28;20036;-71
2022/08/08 14:20:35;;;;;;;8.02;4.78;;;;;;;;;;5094186;28;20016;-73
2022/08/08 14:23:14;;;;;;;6.80;4.90;;;;;;;;;;5078637;28;20107;-73
2022/08/08 14:25:58;;;;;;;5.45;4.68;;;;;;;;;;5081391;28;20470;-71
2022/08/08 14:28:24;;;;;;;9.18;5.10;;;;;;;;;;5087619;28;20027;-74
2022/08/08 14:30:53;;;;;;;9.52;5.15;;;;;;;;;;5067255;28;20097;-74
2022/08/08 14:33:26;;;;;;;6.35;4.60;;;;;;;;;;5066474;28;20017;-73
2022/08/08 14:35:52;;;;;;;;;;;;;;;;;;5058344;28;20505;-71
2022/08/08 14:38:18;;;;;;;6.50;5.07;;;;;;;;;;5059587;28;19917;-71
2022/08/08 14:40:47;;;;;;;129.10;12.30;;;;;;;;;;5080912;28;20028;-73
2022/08/08 14:43:23;;;;;;;45.72;7.97;;;;;;;;;;5059942;28;20025;-71
2022/08/08 14:45:49;;;;;;;15.57;5.95;;;;;;;;;;5068004;28;20063;-73
2022/08/08 14:48:16;;;;;;;17.02;6.38;;;;;;;;;;5072292;28;20369;-71
2022/08/08 14:50:45;;;;;;;22.00;7.35;;;;;;;;;;5071117;28;20098;-71
2022/08/08 14:53:13;;;;;;;17.05;6.82;;;;;;;;;;5068667;28;20043;-71
2022/08/08 14:55:40;;;;;;;14.40;6.60;;;;;;;;;;5053564;28;20032;-71
2022/08/08 14:58:06;;;;;;;16.38;6.85;;;;;;;;;;5053287;28;20079;-69
2022/08/08 15:00:33;;;;;;;12.27;5.82;;;;;;;;;;5062617;28;20028;-72
2022/08/08 15:03:00;;;;;;;16.35;6.38;;;;;;;;;;5072090;28;20028;-71
2022/08/08 15:05:28;;;;;;;14.80;5.93;;;;;;;;;;5053986;28;20104;-73
2022/08/08 15:07:54;;;;;;;16.70;6.18;;;;;;;;;;5053159;28;20032;-72
2022/08/08 15:10:21;;;;;;;20.52;6.72;;;;;;;;;;5065168;28;20075;-71
2022/08/08 15:12:48;;;;;;;14.18;6.43;;;;;;;;;;5072083;28;20024;-72
2022/08/08 15:15:15;;;;;;;14.07;6.30;;;;;;;;;;5072492;28;20031;-72
2022/08/08 15:17:42;;;;;;;10.95;6.70;;;;;;;;;;5057124;28;20021;-69
2022/08/08 15:20:10;;;;;;;9.80;6.15;;;;;;;;;;5061572;28;20033;-71
2022/08/08 15:22:36;;;;;;;13.23;6.28;;;;;;;;;;5078069;28;20028;-72
2022/08/08 15:25:02;;;;;;;8.55;5.90;;;;;;;;;;5060882;28;20398;-70
2022/08/08 15:27:30;;;;;;;11.55;5.90;;;;;;;;;;5053023;28;20024;-71
2022/08/08 15:29:56;;;;;;;11.30;5.60;;;;;;;;;;5074888;28;20071;-73
2022/08/08 15:32:26;;;;;;;11.85;5.68;;;;;;;;;;5083639;28;20016;-70
2022/08/08 15:34:52;;;;;;;7.20;5.25;;;;;;;;;;5081731;28;20527;-72
2022/08/08 15:37:18;;;;;;;12.48;5.43;;;;;;;;;;5085648;28;20025;-71
2022/08/08 15:39:45;;;;;;;8.05;5.75;;;;;;;;;;5073256;28;20024;-69
2022/08/08 15:42:11;;;;;;;24.95;5.65;;;;;;;;;;5077660;28;20107;-74
2022/08/08 15:44:38;;;;;;;10.00;4.82;;;;;;;;;;5083022;28;20648;-71
2022/08/08 15:47:06;;;;;;;18.38;5.13;;;;;;;;;;5072286;28;20020;-69
2022/08/08 15:49:32;;;;;;;8.63;4.63;;;;;;;;;;5080627;28;20040;-68
2022/08/08 15:52:04;;;;;;;6.88;4.55;;;;;;;;;;5078833;28;20091;-70
2022/08/08 15:54:30;;;;;;;9.05;4.50;;;;;;;;;;5103571;28;20461;-71
2022/08/08 15:56:56;;;;;;;9.77;4.75;;;;;;;;;;5093743;28;20499;-72
2022/08/08 15:59:23;;;;;;;6.60;4.43;;;;;;;;;;5074406;28;20037;-69
2022/08/08 16:04:37;;;;;;;11.75;4.72;;;;;;;;;;5080645;28;20043;-71
2022/08/08 16:07:03;;;;;;;6.10;4.18;;;;;;;;;;5077857;28;20016;-69
2022/08/08 16:09:30;;;;;;;9.63;4.35;;;;;;;;;;5090464;28;20085;-73
2022/08/08 16:11:56;;;;;;;8.48;4.10;;;;;;;;;;5082412;28;20032;-72
2022/08/08 16:14:23;;;;;;;9.50;4.20;;;;;;;;;;5072798;28;20028;-68
2022/08/08 16:16:49;;;;;;;10.45;4.05;;;;;;;;;;5085513;28;20103;-68
2022/08/08 16:19:15;;;;;;;4.43;3.83;;;;;;;;;;5072519;28;20020;-72
2022/08/08 16:21:44;;;;;;;8.15;4.18;;;;;;;;;;5082734;28;20048;-73
2022/08/08 16:24:11;;;;;;;6.78;4.50;;;;;;;;;;5080947;28;20059;-73
2022/08/08 16:26:38;;;;;;;7.95;4.10;;;;;;;;;;5090720;28;20035;-70
2022/08/08 16:29:09;;;;;;;7.45;4.30;;;;;;;;;;5091215;28;20119;-72
2022/08/08 16:31:38;;;;;;;9.95;4.60;;;;;;;;;;5078144;28;20413;-72